createdAt,value
2022-09-11T00:00:26.919Z,94529.00
2022-09-11T00:02:28.581Z,94531.69
2022-09-11T00:04:30.233Z,94519.84
2022-09-11T00:06:31.940Z,94524.81
2022-09-11T00:08:33.947Z,94520.53
2022-09-11T00:10:40.314Z,94527.75
2022-09-11T00:12:41.937Z,94523.03
2022-09-11T00:14:43.663Z,94525.09
2022-09-11T00:16:47.175Z,94520.44
2022-09-11T00:18:49.577Z,94528.31
2022-09-11T00:20:54.016Z,94527.72
2022-09-11T00:22:55.630Z,94526.44
2022-09-11T00:24:58.887Z,94530.59
2022-09-11T00:27:01.031Z,94536.16
2022-09-11T00:29:04.198Z,94531.63
2022-09-11T00:31:08.733Z,94528.72
2022-09-11T00:33:14.294Z,94534.03
2022-09-11T00:35:15.882Z,94526.53
2022-09-11T00:37:17.534Z,94525.72
2022-09-11T00:39:19.207Z,94526.97
2022-09-11T00:41:24.291Z,94526.16
2022-09-11T00:43:27.989Z,94522.63
2022-09-11T00:45:29.620Z,94523.28
2022-09-11T00:47:31.354Z,94527.78
2022-09-11T00:49:41.111Z,94525.72
2022-09-11T00:51:45.612Z,94529.41
2022-09-11T00:53:47.442Z,94530.81
2022-09-11T00:55:53.872Z,94531.81
2022-09-11T00:58:01.419Z,94526.31
2022-09-11T01:00:05.657Z,94528.38
2022-09-11T01:02:09.185Z,94532.50
2022-09-11T01:04:10.869Z,94527.19
2022-09-11T01:06:13.504Z,94522.75
2022-09-11T01:08:15.313Z,94532.22
2022-09-11T01:10:17.599Z,94527.91
2022-09-11T01:12:26.263Z,94522.47
2022-09-11T01:15:02.644Z,94523.91
2022-09-11T01:17:44.299Z,94528.81
2022-09-11T01:20:19.784Z,94525.50
2022-09-11T01:22:46.030Z,94528.16
2022-09-11T01:25:24.034Z,94532.59
2022-09-11T01:27:31.326Z,94528.56
2022-09-11T01:29:43.018Z,94529.44
2022-09-11T01:31:57.230Z,94527.28
2022-09-11T01:34:01.372Z,94519.13
2022-09-11T01:36:14.042Z,94519.31
2022-09-11T01:38:21.515Z,94505.97
2022-09-11T01:40:37.235Z,94508.03
2022-09-11T01:42:41.302Z,94513.94
2022-09-11T01:45:01.739Z,94513.94
2022-09-11T01:47:05.289Z,94508.25
2022-09-11T01:49:15.472Z,94504.78
2022-09-11T01:51:24.497Z,94496.22
2022-09-11T01:53:30.970Z,94499.47
2022-09-11T01:55:41.399Z,94492.50
2022-09-11T01:57:56.331Z,94489.38
2022-09-11T02:00:01.598Z,94495.94
2022-09-11T02:02:09.585Z,94480.88
2022-09-11T02:04:18.181Z,94485.00
2022-09-11T02:06:24.708Z,94481.75
2022-09-11T02:08:35.552Z,94482.34
2022-09-11T02:10:40.942Z,94477.34
2022-09-11T02:12:53.886Z,94481.34
2022-09-11T02:14:55.955Z,94483.00
2022-09-11T02:17:06.853Z,94492.97
2022-09-11T02:19:13.079Z,94488.50
2022-09-11T02:21:14.707Z,94490.22
2022-09-11T02:23:16.876Z,94481.72
2022-09-11T02:25:18.500Z,94478.66
2022-09-11T02:27:27.519Z,94477.44
2022-09-11T02:29:29.230Z,94476.19
2022-09-11T02:31:31.287Z,94476.78
2022-09-11T02:33:36.118Z,94472.09
2022-09-11T02:35:45.934Z,94486.16
2022-09-11T02:37:47.746Z,94480.69
2022-09-11T02:40:27.191Z,94483.53
2022-09-11T02:43:19.730Z,94486.25
2022-09-11T02:45:44.791Z,94484.66
2022-09-11T02:48:08.167Z,94487.78
2022-09-11T02:50:34.408Z,94481.88
2022-09-11T02:53:26.960Z,94489.00
2022-09-11T02:55:51.339Z,94477.00
2022-09-11T02:58:23.373Z,94480.25
2022-09-11T03:00:25.155Z,94480.66
2022-09-11T03:02:28.100Z,94480.66
2022-09-11T03:04:29.993Z,94480.66
2022-09-11T03:06:31.572Z,94476.81
2022-09-11T03:08:33.211Z,94483.13
2022-09-11T03:10:34.868Z,94489.84
2022-09-11T03:12:36.631Z,94492.06
2022-09-11T03:14:38.310Z,94492.88
2022-09-11T03:16:41.299Z,94497.16
2022-09-11T03:18:42.926Z,94502.22
2022-09-11T03:20:49.143Z,94498.72
2022-09-11T03:22:50.828Z,94506.84
2022-09-11T03:24:52.422Z,94508.69
2022-09-11T03:26:54.059Z,94507.22
2022-09-11T03:28:55.685Z,94503.50
2022-09-11T03:30:58.225Z,94502.47
2022-09-11T03:33:01.063Z,94503.41
2022-09-11T03:35:02.765Z,94512.56
2022-09-11T03:37:04.484Z,94516.88
2022-09-11T03:39:06.361Z,94510.53
2022-09-11T03:41:09.318Z,94513.13
2022-09-11T03:43:12.485Z,94518.84
2022-09-11T03:45:14.976Z,94523.34
2022-09-11T03:47:16.748Z,94518.72
2022-09-11T03:49:18.378Z,94519.75
2022-09-11T03:51:21.197Z,94527.50
2022-09-11T03:53:22.895Z,94526.88
2022-09-11T03:55:24.501Z,94527.88
2022-09-11T03:57:26.492Z,94527.22
2022-09-11T03:59:28.154Z,94532.50
2022-09-11T04:01:29.911Z,94530.44
2022-09-11T04:03:31.544Z,94531.47
2022-09-11T04:05:33.128Z,94527.19
2022-09-11T04:07:34.872Z,94522.69
2022-09-11T04:09:36.482Z,94522.25
2022-09-11T04:11:40.063Z,94521.84
2022-09-11T04:13:43.876Z,94521.03
2022-09-11T04:15:45.607Z,94525.91
2022-09-11T04:17:47.300Z,94530.22
2022-09-11T04:19:48.873Z,94531.22
2022-09-11T04:21:50.514Z,94533.28
2022-09-11T04:23:54.454Z,94528.81
2022-09-11T04:25:56.396Z,94525.00
2022-09-11T04:27:57.957Z,94522.56
2022-09-11T04:29:59.627Z,94524.81
2022-09-11T04:32:01.461Z,94528.44
2022-09-11T04:34:03.160Z,94528.84
2022-09-11T04:36:10.389Z,94523.53
2022-09-11T04:38:12.039Z,94530.44
2022-09-11T04:40:13.663Z,94522.25
2022-09-11T04:42:15.397Z,94525.91
2022-09-11T04:44:17.066Z,94534.88
2022-09-11T04:46:18.760Z,94529.94
2022-09-11T04:48:20.414Z,94534.91
2022-09-11T04:50:22.023Z,94537.34
2022-09-11T04:52:23.764Z,94533.31
2022-09-11T04:54:25.434Z,94546.75
2022-09-11T04:56:29.406Z,94539.38
2022-09-11T04:58:31.492Z,94544.84
2022-09-11T05:00:33.838Z,94547.28
2022-09-11T05:02:36.258Z,94542.19
2022-09-11T05:04:37.904Z,94537.06
2022-09-11T05:06:40.136Z,94547.25
2022-09-11T05:08:45.812Z,94542.94
2022-09-11T05:10:47.540Z,94544.94
2022-09-11T05:12:49.777Z,94541.69
2022-09-11T05:14:51.437Z,94544.59
2022-09-11T05:16:53.047Z,94539.69
2022-09-11T05:18:55.575Z,94532.78
2022-09-11T05:21:05.300Z,94530.00
2022-09-11T05:23:07.388Z,94538.19
2022-09-11T05:25:09.676Z,94537.00
2022-09-11T05:27:11.678Z,94542.03
2022-09-11T05:29:15.374Z,94537.28
2022-09-11T05:31:17.365Z,94544.81
2022-09-11T05:33:19.319Z,94541.69
2022-09-11T05:35:25.737Z,94533.06
2022-09-11T05:37:29.097Z,94529.97
2022-09-11T05:39:30.770Z,94528.63
2022-09-11T05:41:32.440Z,94527.56
2022-09-11T05:43:34.809Z,94527.56
2022-09-11T05:45:37.098Z,94524.75
2022-09-11T05:47:39.180Z,94529.31
2022-09-11T05:49:40.859Z,94530.13
2022-09-11T05:51:42.526Z,94534.50
2022-09-11T05:53:44.490Z,94534.41
2022-09-11T05:55:47.313Z,94540.25
2022-09-11T05:57:48.877Z,94539.88
2022-09-11T05:59:50.456Z,94539.25
2022-09-11T06:01:52.110Z,94539.28
2022-09-11T06:03:54.445Z,94540.50
2022-09-11T06:05:59.566Z,94540.91
2022-09-11T06:08:01.792Z,94548.03
2022-09-11T06:10:03.679Z,94539.25
2022-09-11T06:12:05.476Z,94548.63
2022-09-11T06:14:07.173Z,94550.06
2022-09-11T06:16:18.034Z,94555.56
2022-09-11T06:18:20.379Z,94552.50
2022-09-11T06:20:22.362Z,94550.84
2022-09-11T06:22:23.997Z,94557.72
2022-09-11T06:24:25.820Z,94556.03
2022-09-11T06:26:27.657Z,94556.22
2022-09-11T06:28:29.369Z,94559.16
2022-09-11T06:30:31.023Z,94559.06
2022-09-11T06:32:32.680Z,94558.66
2022-09-11T06:34:34.305Z,94554.06
2022-09-11T06:36:36.089Z,94559.22
2022-09-11T06:38:57.606Z,94562.13
2022-09-11T06:41:03.058Z,94557.03
2022-09-11T06:43:05.124Z,94561.75
2022-09-11T06:45:08.665Z,94563.81
2022-09-11T06:47:10.262Z,94570.28
2022-09-11T06:49:11.891Z,94565.59
2022-09-11T06:51:15.802Z,94560.94
2022-09-11T06:53:17.469Z,94563.13
2022-09-11T06:55:19.194Z,94556.06
2022-09-11T06:57:20.841Z,94554.22
2022-09-11T06:59:23.949Z,94561.00
2022-09-11T07:01:26.270Z,94560.88
2022-09-11T07:03:28.060Z,94561.84
2022-09-11T07:05:29.802Z,94556.59
2022-09-11T07:07:31.366Z,94557.34
2022-09-11T07:09:32.986Z,94565.25
2022-09-11T07:11:35.294Z,94565.00
2022-09-11T07:13:38.222Z,94562.84
2022-09-11T07:15:39.934Z,94560.31
2022-09-11T07:17:41.587Z,94557.84
2022-09-11T07:19:43.366Z,94553.38
2022-09-11T07:21:45.063Z,94555.03
2022-09-11T07:23:49.607Z,94556.69
2022-09-11T07:25:51.194Z,94560.88
2022-09-11T07:27:53.090Z,94556.38
2022-09-11T07:29:54.837Z,94555.91
2022-09-11T07:31:57.930Z,94558.53
2022-09-11T07:34:00.351Z,94545.91
2022-09-11T07:36:07.229Z,94545.53
2022-09-11T07:38:08.838Z,94545.84
2022-09-11T07:40:10.879Z,94539.25
2022-09-11T07:42:12.543Z,94536.97
2022-09-11T07:44:15.363Z,94541.75
2022-09-11T07:46:17.548Z,94547.50
2022-09-11T07:48:19.209Z,94540.75
2022-09-11T07:50:20.803Z,94547.84
2022-09-11T07:52:22.451Z,94550.97
2022-09-11T07:54:24.075Z,94551.84
2022-09-11T07:56:26.946Z,94539.09
2022-09-11T07:58:32.218Z,94546.97
2022-09-11T08:00:36.956Z,94540.63
2022-09-11T08:02:38.882Z,94542.94
2022-09-11T08:04:40.808Z,94540.59
2022-09-11T08:06:42.669Z,94543.03
2022-09-11T08:08:44.636Z,94531.59
2022-09-11T08:10:46.388Z,94533.41
2022-09-11T08:12:47.991Z,94531.72
2022-09-11T08:14:49.991Z,94533.56
2022-09-11T08:16:53.557Z,94529.06
2022-09-11T08:18:55.047Z,94526.41
2022-09-11T08:21:12.764Z,94523.25
2022-09-11T08:23:18.111Z,94518.75
2022-09-11T08:25:19.712Z,94522.13
2022-09-11T08:27:21.332Z,94520.31
2022-09-11T08:29:23.142Z,94516.13
2022-09-11T08:31:26.940Z,94516.22
2022-09-11T08:33:29.786Z,94512.84
2022-09-11T08:35:31.606Z,94517.09
2022-09-11T08:37:33.169Z,94518.09
2022-09-11T08:39:34.985Z,94525.03
2022-09-11T08:41:47.501Z,94523.41
2022-09-11T08:43:59.316Z,94523.47
2022-09-11T08:46:06.649Z,94525.44
2022-09-11T08:48:11.303Z,94516.75
2022-09-11T08:50:33.095Z,94518.38
2022-09-11T08:52:36.490Z,94512.56
2022-09-11T08:54:40.619Z,94501.81
2022-09-11T08:56:44.083Z,94509.56
2022-09-11T08:58:52.054Z,94495.47
2022-09-11T09:01:12.437Z,94500.44
2022-09-11T09:03:51.467Z,94497.81
2022-09-11T09:06:09.428Z,94495.97
2022-09-11T09:08:29.733Z,94489.31
2022-09-11T09:10:51.060Z,94496.84
2022-09-11T09:13:02.483Z,94486.56
2022-09-11T09:15:25.161Z,94492.66
2022-09-11T09:18:02.431Z,94484.88
2022-09-11T09:20:09.664Z,94494.03
2022-09-11T09:22:14.483Z,94495.97
2022-09-11T09:24:22.028Z,94488.66
2022-09-11T09:26:30.057Z,94485.16
2022-09-11T09:28:39.652Z,94483.75
2022-09-11T09:30:50.884Z,94489.47
2022-09-11T09:33:11.393Z,94479.16
2022-09-11T09:35:29.478Z,94478.06
2022-09-11T09:37:31.400Z,94479.19
2022-09-11T09:39:36.181Z,94477.03
2022-09-11T09:41:56.879Z,94465.31
2022-09-11T09:44:08.636Z,94458.34
2022-09-11T09:46:41.713Z,94457.25
2022-09-11T09:48:44.054Z,94460.72
2022-09-11T09:50:45.878Z,94466.97
2022-09-11T09:52:49.173Z,94465.34
2022-09-11T09:54:57.456Z,94455.59
2022-09-11T09:57:05.193Z,94459.91
2022-09-11T09:59:19.434Z,94460.34
2022-09-11T10:01:39.985Z,94465.91
2022-09-11T10:03:41.694Z,94449.72
2022-09-11T10:05:44.460Z,94447.31
2022-09-11T10:07:51.050Z,94447.81
2022-09-11T10:09:55.209Z,94444.28
2022-09-11T10:12:02.921Z,94436.16
2022-09-11T10:14:06.969Z,94436.69
2022-09-11T10:16:26.050Z,94443.16
2022-09-11T10:18:33.631Z,94436.16
2022-09-11T10:20:36.233Z,94439.00
2022-09-11T10:22:38.098Z,94437.00
2022-09-11T10:24:42.807Z,94443.47
2022-09-11T10:26:47.831Z,94432.94
2022-09-11T10:28:49.788Z,94440.75
2022-09-11T10:31:00.352Z,94431.41
2022-09-11T10:33:06.936Z,94439.34
2022-09-11T10:35:09.721Z,94446.03
2022-09-11T10:37:14.277Z,94432.31
2022-09-11T10:39:18.873Z,94434.16
2022-09-11T10:41:22.763Z,94445.22
2022-09-11T10:43:31.840Z,94428.53
2022-09-11T10:45:33.871Z,94427.59
2022-09-11T10:47:36.077Z,94418.31
2022-09-11T10:49:37.773Z,94417.88
2022-09-11T10:51:45.427Z,94421.94
2022-09-11T10:53:59.639Z,94411.78
2022-09-11T10:56:06.000Z,94426.44
2022-09-11T10:58:17.519Z,94424.69
2022-09-11T11:00:23.925Z,94415.06
2022-09-11T11:02:31.793Z,94420.59
2022-09-11T11:04:33.593Z,94409.63
2022-09-11T11:07:04.681Z,94415.44
2022-09-11T11:09:30.791Z,94425.25
2022-09-11T11:11:41.840Z,94419.81
2022-09-11T11:14:05.305Z,94412.00
2022-09-11T11:16:31.180Z,94400.09
2022-09-11T11:18:59.046Z,94402.19
2022-09-11T11:21:07.825Z,94392.47
2022-09-11T11:23:22.377Z,94394.28
2022-09-11T11:25:30.769Z,94400.19
2022-09-11T11:27:36.657Z,94389.53
2022-09-11T11:29:55.039Z,94399.16
2022-09-11T11:31:56.598Z,94390.16
2022-09-11T11:34:12.948Z,94394.91
2022-09-11T11:36:22.868Z,94378.75
2022-09-11T11:38:29.220Z,94383.66
2022-09-11T11:40:47.265Z,94376.97
2022-09-11T11:42:56.249Z,94375.81
2022-09-11T11:45:04.058Z,94365.19
2022-09-11T11:47:10.899Z,94363.63
2022-09-11T11:49:31.463Z,94359.66
2022-09-11T11:51:47.545Z,94363.56
2022-09-11T11:54:00.061Z,94375.66
2022-09-11T11:56:37.854Z,94371.16
2022-09-11T11:58:47.964Z,94366.56
2022-09-11T12:00:56.224Z,94370.69
2022-09-11T12:03:10.125Z,94372.63
2022-09-11T12:05:17.356Z,94363.53
2022-09-11T12:07:22.252Z,94366.38
2022-09-11T12:09:23.888Z,94351.31
2022-09-11T12:11:32.601Z,94356.25
2022-09-11T12:13:42.375Z,94346.06
2022-09-11T12:16:10.608Z,94351.56
2022-09-11T12:18:15.787Z,94352.56
2022-09-11T12:20:36.419Z,94355.53
2022-09-11T12:22:39.353Z,94335.25
2022-09-11T12:24:52.418Z,94331.28
2022-09-11T12:27:35.602Z,94332.81
2022-09-11T12:29:55.639Z,94339.09
2022-09-11T12:32:00.330Z,94324.13
2022-09-11T12:34:01.966Z,94330.56
2022-09-11T12:36:05.894Z,94330.44
2022-09-11T12:38:08.940Z,94324.00
2022-09-11T12:40:22.441Z,94321.03
2022-09-11T12:42:24.040Z,94314.41
2022-09-11T12:44:47.180Z,94315.00
2022-09-11T12:46:48.697Z,94311.72
2022-09-11T12:49:17.822Z,94307.81
2022-09-11T12:51:21.458Z,94314.63
2022-09-11T12:53:27.131Z,94306.78
2022-09-11T12:55:41.633Z,94322.09
2022-09-11T12:57:43.275Z,94305.63
2022-09-11T12:59:46.666Z,94302.72
2022-09-11T13:01:48.279Z,94298.88
2022-09-11T13:04:10.925Z,94296.66
2022-09-11T13:06:13.746Z,94302.09
2022-09-11T13:08:18.633Z,94295.06
2022-09-11T13:10:28.836Z,94294.94
2022-09-11T13:12:30.629Z,94286.75
2022-09-11T13:14:32.270Z,94282.53
2022-09-11T13:16:37.169Z,94277.28
2022-09-11T13:18:43.564Z,94276.44
2022-09-11T13:20:56.441Z,94275.50
2022-09-11T13:23:15.325Z,94267.56
2022-09-11T13:25:19.723Z,94262.22
2022-09-11T13:27:30.125Z,94257.53
2022-09-11T13:29:35.109Z,94257.97
2022-09-11T13:31:38.201Z,94263.38
2022-09-11T13:33:41.254Z,94259.63
2022-09-11T13:35:45.114Z,94250.75
2022-09-11T13:38:02.835Z,94253.88
2022-09-11T13:40:06.239Z,94263.75
2022-09-11T13:42:08.624Z,94257.94
2022-09-11T13:44:23.184Z,94254.19
2022-09-11T13:46:27.953Z,94253.94
2022-09-11T13:48:29.612Z,94256.75
2022-09-11T13:50:31.363Z,94246.84
2022-09-11T13:52:34.266Z,94245.41
2022-09-11T13:54:46.871Z,94249.06
2022-09-11T13:56:57.566Z,94250.88
2022-09-11T13:59:02.653Z,94254.19
2022-09-11T14:01:11.850Z,94245.25
2022-09-11T14:03:20.489Z,94240.97
2022-09-11T14:05:26.067Z,94236.88
2022-09-11T14:07:27.721Z,94240.84
2022-09-11T14:09:29.361Z,94240.13
2022-09-11T14:11:32.340Z,94232.00
2022-09-11T14:13:53.555Z,94240.84
2022-09-11T14:16:04.318Z,94234.81
2022-09-11T14:18:12.341Z,94223.72
2022-09-11T14:20:17.288Z,94229.19
2022-09-11T14:22:32.395Z,94220.66
2022-09-11T14:24:36.359Z,94225.09
2022-09-11T14:26:41.521Z,94229.16
2022-09-11T14:29:09.333Z,94226.78
2022-09-11T14:31:13.975Z,94217.25
2022-09-11T14:33:21.867Z,94218.47
2022-09-11T14:35:25.257Z,94215.28
2022-09-11T14:37:29.250Z,94218.84
2022-09-11T14:40:03.131Z,94225.63
2022-09-11T14:42:09.159Z,94220.47
2022-09-11T14:44:13.957Z,94224.38
2022-09-11T14:46:16.201Z,94217.94
2022-09-11T14:48:18.815Z,94225.75
2022-09-11T14:50:21.283Z,94218.72
2022-09-11T14:52:24.965Z,94217.81
2022-09-11T14:54:31.897Z,94210.25
2022-09-11T14:56:33.517Z,94209.44
2022-09-11T14:58:35.269Z,94220.44
2022-09-11T15:00:37.023Z,94217.53
2022-09-11T15:02:39.092Z,94218.91
2022-09-11T15:04:40.785Z,94216.34
2022-09-11T15:06:42.351Z,94219.19
2022-09-11T15:08:44.925Z,94219.44
2022-09-11T15:10:48.747Z,94213.09
2022-09-11T15:12:50.697Z,94215.13
2022-09-11T15:14:57.617Z,94214.88
2022-09-11T15:17:01.901Z,94203.25
2022-09-11T15:19:03.657Z,94208.31
2022-09-11T15:21:05.364Z,94206.75
2022-09-11T15:23:06.952Z,94207.28
2022-09-11T15:25:08.770Z,94208.63
2022-09-11T15:27:10.436Z,94211.25
2022-09-11T15:29:12.125Z,94210.16
2022-09-11T15:31:15.945Z,94205.06
2022-09-11T15:33:17.530Z,94205.72
2022-09-11T15:35:19.381Z,94208.72
2022-09-11T15:37:21.373Z,94207.59
2022-09-11T15:39:24.432Z,94198.09
2022-09-11T15:41:28.059Z,94193.84
2022-09-11T15:43:35.097Z,94207.06
2022-09-11T15:45:42.396Z,94210.69
2022-09-11T15:47:44.520Z,94207.41
2022-09-11T15:49:47.966Z,94217.81
2022-09-11T15:51:50.014Z,94211.69
2022-09-11T15:53:52.430Z,94225.88
2022-09-11T15:56:07.460Z,94228.75
2022-09-11T15:58:09.442Z,94232.63
2022-09-11T16:00:12.403Z,94257.84
2022-09-11T16:02:14.308Z,94261.59
2022-09-11T16:04:20.203Z,94275.72
2022-09-11T16:06:23.635Z,94281.81
2022-09-11T16:08:25.450Z,94294.41
2022-09-11T16:10:27.930Z,94304.75
2022-09-11T16:12:29.553Z,94314.78
2022-09-11T16:14:33.332Z,94320.47
2022-09-11T16:16:35.312Z,94325.75
2022-09-11T16:18:38.593Z,94330.38
2022-09-11T16:20:41.671Z,94335.31
2022-09-11T16:22:44.198Z,94327.31
2022-09-11T16:24:46.062Z,94323.59
2022-09-11T16:26:47.706Z,94324.78
2022-09-11T16:28:49.359Z,94320.97
2022-09-11T16:30:53.994Z,94331.06
2022-09-11T16:32:55.572Z,94327.28
2022-09-11T16:34:57.775Z,94320.03
2022-09-11T16:37:00.411Z,94315.22
2022-09-11T16:39:02.199Z,94308.06
2022-09-11T16:41:09.395Z,94310.25
2022-09-11T16:43:10.980Z,94320.44
2022-09-11T16:45:31.032Z,94319.06
2022-09-11T16:47:33.411Z,94329.13
2022-09-11T16:49:50.490Z,94333.00
2022-09-11T16:51:56.645Z,94344.47
2022-09-11T16:53:58.477Z,94331.03
2022-09-11T16:56:01.483Z,94333.75
2022-09-11T16:58:03.559Z,94338.47
2022-09-11T17:00:07.920Z,94341.88
2022-09-11T17:02:10.141Z,94346.81
2022-09-11T17:04:12.010Z,94342.75
2022-09-11T17:06:15.004Z,94344.81
2022-09-11T17:08:17.612Z,94346.56
2022-09-11T17:10:19.271Z,94347.25
2022-09-11T17:12:22.387Z,94349.75
2022-09-11T17:14:24.180Z,94357.13
2022-09-11T17:16:28.356Z,94356.31
2022-09-11T17:18:30.100Z,94359.56
2022-09-11T17:20:31.722Z,94361.56
2022-09-11T17:22:33.394Z,94375.31
2022-09-11T17:24:35.270Z,94378.19
2022-09-11T17:26:36.862Z,94380.53
2022-09-11T17:28:39.590Z,94385.56
2022-09-11T17:30:41.390Z,94377.13
2022-09-11T17:32:44.009Z,94390.13
2022-09-11T17:34:47.020Z,94396.50
2022-09-11T17:36:49.417Z,94392.66
2022-09-11T17:38:52.703Z,94399.16
2022-09-11T17:40:59.057Z,94397.22
2022-09-11T17:43:01.222Z,94403.34
2022-09-11T17:45:03.274Z,94403.88
2022-09-11T17:47:05.039Z,94410.97
2022-09-11T17:49:07.438Z,94421.94
2022-09-11T17:51:11.845Z,94418.56
2022-09-11T17:53:14.330Z,94410.59
2022-09-11T17:55:16.250Z,94414.06
2022-09-11T17:57:17.843Z,94411.97
2022-09-11T17:59:20.540Z,94419.06
2022-09-11T18:01:23.391Z,94423.84
2022-09-11T18:03:25.301Z,94423.25
2022-09-11T18:05:28.974Z,94423.50
2022-09-11T18:07:30.450Z,94426.47
2022-09-11T18:09:32.328Z,94428.66
2022-09-11T18:11:34.299Z,94427.81
2022-09-11T18:13:36.400Z,94423.88
2022-09-11T18:15:38.292Z,94433.53
2022-09-11T18:17:40.486Z,94429.50
2022-09-11T18:19:42.791Z,94431.56
2022-09-11T18:21:49.399Z,94438.47
2022-09-11T18:23:52.720Z,94433.75
2022-09-11T18:25:55.042Z,94439.06
2022-09-11T18:27:57.185Z,94440.75
2022-09-11T18:30:00.002Z,94435.72
2022-09-11T18:32:03.832Z,94436.53
2022-09-11T18:34:07.052Z,94434.41
2022-09-11T18:36:10.863Z,94432.94
2022-09-11T18:38:13.499Z,94444.16
2022-09-11T18:40:15.969Z,94435.16
2022-09-11T18:42:18.852Z,94440.38
2022-09-11T18:44:23.474Z,94438.38
2022-09-11T18:46:27.502Z,94435.72
2022-09-11T18:48:29.841Z,94435.72
2022-09-11T18:50:32.045Z,94433.81
2022-09-11T18:52:34.407Z,94431.31
2022-09-11T18:54:37.581Z,94427.19
2022-09-11T18:56:40.708Z,94423.88
2022-09-11T18:58:43.122Z,94424.00
2022-09-11T19:00:45.843Z,94425.41
2022-09-11T19:02:50.461Z,94411.91
2022-09-11T19:04:53.025Z,94411.91
2022-09-11T19:06:55.588Z,94403.50
2022-09-11T19:09:00.106Z,94403.56
2022-09-11T19:11:07.885Z,94406.22
2022-09-11T19:13:10.953Z,94411.31
2022-09-11T19:15:13.282Z,94407.78
2022-09-11T19:17:15.494Z,94408.19
2022-09-11T19:19:18.781Z,94417.44
2022-09-11T19:21:23.294Z,94405.78
2022-09-11T19:23:25.879Z,94414.13
2022-09-11T19:25:30.687Z,94415.38
2022-09-11T19:27:33.428Z,94412.38
2022-09-11T19:29:36.015Z,94411.41
2022-09-11T19:31:39.711Z,94413.25
2022-09-11T19:33:42.646Z,94416.31
2022-09-11T19:35:44.818Z,94420.97
2022-09-11T19:37:47.895Z,94432.34
2022-09-11T19:39:52.233Z,94430.16
2022-09-11T19:41:54.402Z,94432.03
2022-09-11T19:44:00.384Z,94435.13
2022-09-11T19:46:04.243Z,94438.25
2022-09-11T19:48:06.053Z,94430.09
2022-09-11T19:50:09.255Z,94431.97
2022-09-11T19:52:12.068Z,94434.91
2022-09-11T19:54:14.714Z,94431.94
2022-09-11T19:56:17.670Z,94423.16
2022-09-11T19:58:23.799Z,94427.22
2022-09-11T20:00:25.982Z,94422.66
2022-09-11T20:02:27.910Z,94410.25
2022-09-11T20:04:29.879Z,94415.16
2022-09-11T20:06:33.121Z,94406.59
2022-09-11T20:08:36.277Z,94413.94
2022-09-11T20:10:40.749Z,94407.78
2022-09-11T20:12:42.600Z,94407.19
2022-09-11T20:14:44.221Z,94415.75
2022-09-11T20:16:45.894Z,94423.59
2022-09-11T20:18:47.550Z,94422.47
2022-09-11T20:20:49.185Z,94432.13
2022-09-11T20:22:50.794Z,94430.03
2022-09-11T20:24:52.409Z,94434.09
2022-09-11T20:26:54.679Z,94437.19
2022-09-11T20:29:12.245Z,94449.69
2022-09-11T20:31:22.733Z,94444.78
2022-09-11T20:33:24.412Z,94447.63
2022-09-11T20:35:26.332Z,94443.28
2022-09-11T20:37:28.159Z,94451.63
2022-09-11T20:39:29.789Z,94451.41
2022-09-11T20:41:32.331Z,94454.88
2022-09-11T20:43:34.849Z,94455.31
2022-09-11T20:45:36.436Z,94461.59
2022-09-11T20:47:38.027Z,94466.72
2022-09-11T20:49:39.950Z,94468.75
2022-09-11T20:51:41.782Z,94469.75
2022-09-11T20:53:45.720Z,94466.47
2022-09-11T20:55:48.148Z,94459.97
2022-09-11T20:57:49.744Z,94470.97
2022-09-11T20:59:51.373Z,94475.28
2022-09-11T21:01:53.343Z,94473.25
2022-09-11T21:03:56.564Z,94459.38
2022-09-11T21:06:04.085Z,94475.66
2022-09-11T21:08:05.723Z,94467.50
2022-09-11T21:10:08.025Z,94467.13
2022-09-11T21:12:09.637Z,94469.13
2022-09-11T21:14:15.512Z,94470.38
2022-09-11T21:16:17.704Z,94469.13
2022-09-11T21:18:19.305Z,94478.94
2022-09-11T21:20:21.129Z,94473.81
2022-09-11T21:22:22.877Z,94474.22
2022-09-11T21:24:24.481Z,94466.25
2022-09-11T21:26:28.623Z,94467.47
2022-09-11T21:28:30.972Z,94469.50
2022-09-11T21:30:32.596Z,94466.06
2022-09-11T21:32:34.300Z,94455.28
2022-09-11T21:34:35.836Z,94455.69
2022-09-11T21:36:37.493Z,94457.13
2022-09-11T21:38:39.454Z,94457.31
2022-09-11T21:40:41.041Z,94460.16
2022-09-11T21:42:42.614Z,94456.09
2022-09-11T21:44:44.354Z,94457.94
2022-09-11T21:46:46.280Z,94468.72
2022-09-11T21:48:47.988Z,94468.69
2022-09-11T21:50:49.768Z,94463.59
2022-09-11T21:52:52.040Z,94469.69
2022-09-11T21:54:54.803Z,94463.34
2022-09-11T21:56:56.424Z,94462.72
2022-09-11T21:58:58.416Z,94450.94
2022-09-11T22:01:08.721Z,94449.06
2022-09-11T22:03:14.264Z,94452.53
2022-09-11T22:05:15.968Z,94459.91
2022-09-11T22:07:17.921Z,94451.97
2022-09-11T22:09:20.828Z,94458.31
2022-09-11T22:11:23.113Z,94454.41
2022-09-11T22:13:24.730Z,94461.34
2022-09-11T22:15:26.348Z,94452.78
2022-09-11T22:17:28.794Z,94450.97
2022-09-11T22:19:30.383Z,94455.66
2022-09-11T22:21:32.018Z,94453.00
2022-09-11T22:23:34.135Z,94453.16
2022-09-11T22:25:36.921Z,94451.94
2022-09-11T22:27:38.671Z,94450.28
2022-09-11T22:29:44.009Z,94451.91
2022-09-11T22:31:48.504Z,94453.13
2022-09-11T22:33:50.277Z,94454.97
2022-09-11T22:35:51.998Z,94457.47
2022-09-11T22:37:53.573Z,94449.94
2022-09-11T22:39:55.292Z,94465.44
2022-09-11T22:41:57.063Z,94456.09
2022-09-11T22:43:58.685Z,94459.16
2022-09-11T22:46:00.439Z,94460.81
2022-09-11T22:48:02.850Z,94455.75
2022-09-11T22:50:04.825Z,94463.06
2022-09-11T22:52:08.410Z,94454.50
2022-09-11T22:54:13.823Z,94460.81
2022-09-11T22:56:15.593Z,94457.78
2022-09-11T22:58:17.415Z,94463.50
2022-09-11T23:00:19.861Z,94456.34
2022-09-11T23:02:21.714Z,94460.03
2022-09-11T23:04:23.377Z,94461.47
2022-09-11T23:06:43.481Z,94453.31
2022-09-11T23:08:48.427Z,94455.56
2022-09-11T23:10:50.257Z,94452.09
2022-09-11T23:12:52.791Z,94456.56
2022-09-11T23:14:54.558Z,94451.88
2022-09-11T23:16:56.200Z,94460.28
2022-09-11T23:19:00.415Z,94456.41
2022-09-11T23:21:02.031Z,94462.34
2022-09-11T23:23:04.005Z,94466.19
2022-09-11T23:25:06.523Z,94463.75
2022-09-11T23:27:08.200Z,94466.19
2022-09-11T23:29:10.558Z,94464.38
2022-09-11T23:31:20.964Z,94470.06
2022-09-11T23:33:22.598Z,94463.56
2022-09-11T23:35:24.212Z,94466.00
2022-09-11T23:37:25.845Z,94460.72
2022-09-11T23:39:27.474Z,94460.53
2022-09-11T23:41:29.410Z,94457.28
2022-09-11T23:43:31.125Z,94456.66
2022-09-11T23:45:33.015Z,94449.31
2022-09-11T23:47:34.638Z,94451.34
2022-09-11T23:49:36.631Z,94450.97
2022-09-11T23:51:39.042Z,94461.13
2022-09-11T23:53:45.026Z,94459.28
2022-09-11T23:55:48.927Z,94453.63
2022-09-11T23:57:53.680Z,94463.97
2022-09-11T23:59:55.318Z,94465.63
